sensor_id;sensor_type;location;lat;lon;timestamp;P1;durP1;ratioP1;P2;durP2;ratioP2
35757;SDS011;21879;50.110;18.900;2023-08-07T00:02:21;8.20;;;4.30;;
35757;SDS011;21879;50.110;18.900;2023-08-07T00:12:49;7.10;;;4.90;;
35757;SDS011;21879;50.110;18.900;2023-08-07T00:23:18;6.00;;;4.10;;
35757;SDS011;21879;50.110;18.900;2023-08-07T00:33:46;7.40;;;4.60;;
35757;SDS011;21879;50.110;18.900;2023-08-07T00:44:16;7.80;;;4.50;;
35757;SDS011;21879;50.110;18.900;2023-08-07T00:54:44;7.40;;;4.80;;
35757;SDS011;21879;50.110;18.900;2023-08-07T01:05:12;6.20;;;5.00;;
35757;SDS011;21879;50.110;18.900;2023-08-07T01:15:40;8.30;;;5.10;;
35757;SDS011;21879;50.110;18.900;2023-08-07T01:26:08;6.50;;;4.60;;
35757;SDS011;21879;50.110;18.900;2023-08-07T01:36:35;7.50;;;5.20;;
35757;SDS011;21879;50.110;18.900;2023-08-07T01:47:05;8.60;;;5.30;;
35757;SDS011;21879;50.110;18.900;2023-08-07T01:57:33;6.60;;;4.70;;
35757;SDS011;21879;50.110;18.900;2023-08-07T02:08:00;9.80;;;5.80;;
35757;SDS011;21879;50.110;18.900;2023-08-07T02:18:28;6.70;;;3.60;;
35757;SDS011;21879;50.110;18.900;2023-08-07T02:28:56;10.30;;;4.40;;
35757;SDS011;21879;50.110;18.900;2023-08-07T02:39:24;4.90;;;3.60;;
35757;SDS011;21879;50.110;18.900;2023-08-07T02:49:52;6.10;;;3.50;;
35757;SDS011;21879;50.110;18.900;2023-08-07T03:00:21;4.10;;;3.10;;
35757;SDS011;21879;50.110;18.900;2023-08-07T03:10:52;5.60;;;3.80;;
35757;SDS011;21879;50.110;18.900;2023-08-07T03:21:21;4.30;;;3.00;;
35757;SDS011;21879;50.110;18.900;2023-08-07T03:31:49;3.40;;;2.20;;
35757;SDS011;21879;50.110;18.900;2023-08-07T03:42:16;3.40;;;2.40;;
35757;SDS011;21879;50.110;18.900;2023-08-07T03:52:44;3.10;;;1.60;;
35757;SDS011;21879;50.110;18.900;2023-08-07T04:13:38;1.50;;;1.00;;
35757;SDS011;21879;50.110;18.900;2023-08-07T04:34:35;3.00;;;1.10;;
35757;SDS011;21879;50.110;18.900;2023-08-07T04:55:28;0.80;;;0.60;;
35757;SDS011;21879;50.110;18.900;2023-08-07T05:05:59;4.40;;;1.30;;
35757;SDS011;21879;50.110;18.900;2023-08-07T05:16:27;3.00;;;1.40;;
35757;SDS011;21879;50.110;18.900;2023-08-07T05:26:54;3.20;;;1.40;;
35757;SDS011;21879;50.110;18.900;2023-08-07T05:47:48;1.90;;;1.10;;
35757;SDS011;21879;50.110;18.900;2023-08-07T05:58:15;3.40;;;1.40;;
35757;SDS011;21879;50.110;18.900;2023-08-07T06:08:43;1.40;;;1.00;;
35757;SDS011;21879;50.110;18.900;2023-08-07T06:19:11;4.00;;;1.30;;
35757;SDS011;21879;50.110;18.900;2023-08-07T06:29:55;2.30;;;0.70;;
35757;SDS011;21879;50.110;18.900;2023-08-07T06:40:22;1.80;;;0.90;;
35757;SDS011;21879;50.110;18.900;2023-08-07T06:50:50;1.80;;;0.90;;
35757;SDS011;21879;50.110;18.900;2023-08-07T07:01:18;1.80;;;1.00;;
35757;SDS011;21879;50.110;18.900;2023-08-07T07:11:45;1.00;;;0.70;;
35757;SDS011;21879;50.110;18.900;2023-08-07T07:22:13;1.00;;;0.70;;
35757;SDS011;21879;50.110;18.900;2023-08-07T07:32:40;0.70;;;0.70;;
35757;SDS011;21879;50.110;18.900;2023-08-07T07:43:08;0.60;;;0.60;;
35757;SDS011;21879;50.110;18.900;2023-08-07T07:53:36;0.70;;;0.50;;
35757;SDS011;21879;50.110;18.900;2023-08-07T08:14:31;0.50;;;0.50;;
35757;SDS011;21879;50.110;18.900;2023-08-07T08:25:18;1.30;;;0.80;;
35757;SDS011;21879;50.110;18.900;2023-08-07T08:46:11;2.10;;;0.70;;
35757;SDS011;21879;50.110;18.900;2023-08-07T08:56:40;2.70;;;1.40;;
35757;SDS011;21879;50.110;18.900;2023-08-07T09:07:15;2.60;;;1.10;;
35757;SDS011;21879;50.110;18.900;2023-08-07T09:18:03;2.90;;;0.90;;
35757;SDS011;21879;50.110;18.900;2023-08-07T09:29:05;1.10;;;0.70;;
35757;SDS011;21879;50.110;18.900;2023-08-07T09:40:00;1.10;;;0.80;;
35757;SDS011;21879;50.110;18.900;2023-08-07T09:51:01;1.80;;;0.70;;
35757;SDS011;21879;50.110;18.900;2023-08-07T10:01:46;1.40;;;0.90;;
35757;SDS011;21879;50.110;18.900;2023-08-07T10:12:46;1.60;;;1.10;;
35757;SDS011;21879;50.110;18.900;2023-08-07T10:23:32;5.90;;;1.30;;
35757;SDS011;21879;50.110;18.900;2023-08-07T10:34:34;1.50;;;1.10;;
35757;SDS011;21879;50.110;18.900;2023-08-07T10:45:20;0.70;;;0.40;;
35757;SDS011;21879;50.110;18.900;2023-08-07T10:56:29;8.50;;;5.80;;
35757;SDS011;21879;50.110;18.900;2023-08-07T11:07:23;1.70;;;0.80;;
35757;SDS011;21879;50.110;18.900;2023-08-07T11:18:23;2.70;;;1.70;;
35757;SDS011;21879;50.110;18.900;2023-08-07T11:29:10;2.70;;;1.20;;
35757;SDS011;21879;50.110;18.900;2023-08-07T11:40:13;2.90;;;2.00;;
35757;SDS011;21879;50.110;18.900;2023-08-07T11:51:13;4.80;;;2.70;;
35757;SDS011;21879;50.110;18.900;2023-08-07T12:01:59;4.30;;;2.00;;
35757;SDS011;21879;50.110;18.900;2023-08-07T12:13:09;3.40;;;1.50;;
35757;SDS011;21879;50.110;18.900;2023-08-07T12:23:56;3.40;;;2.00;;
35757;SDS011;21879;50.110;18.900;2023-08-07T12:34:56;4.50;;;1.70;;
35757;SDS011;21879;50.110;18.900;2023-08-07T12:45:44;2.60;;;1.60;;
35757;SDS011;21879;50.110;18.900;2023-08-07T12:56:46;4.10;;;2.40;;
35757;SDS011;21879;50.110;18.900;2023-08-07T13:07:31;4.70;;;2.30;;
35757;SDS011;21879;50.110;18.900;2023-08-07T13:18:30;4.70;;;2.60;;
35757;SDS011;21879;50.110;18.900;2023-08-07T13:29:16;3.60;;;2.50;;
35757;SDS011;21879;50.110;18.900;2023-08-07T13:40:16;4.10;;;2.40;;
35757;SDS011;21879;50.110;18.900;2023-08-07T13:51:15;3.60;;;2.30;;
35757;SDS011;21879;50.110;18.900;2023-08-07T14:02:01;5.00;;;2.70;;
35757;SDS011;21879;50.110;18.900;2023-08-07T14:13:00;3.70;;;2.30;;
35757;SDS011;21879;50.110;18.900;2023-08-07T14:23:46;6.80;;;2.90;;
35757;SDS011;21879;50.110;18.900;2023-08-07T14:34:45;3.50;;;1.90;;
35757;SDS011;21879;50.110;18.900;2023-08-07T14:45:31;4.60;;;2.30;;
35757;SDS011;21879;50.110;18.900;2023-08-07T14:56:31;3.90;;;2.10;;
35757;SDS011;21879;50.110;18.900;2023-08-07T15:07:17;2.70;;;1.90;;
35757;SDS011;21879;50.110;18.900;2023-08-07T15:18:16;4.50;;;2.20;;
35757;SDS011;21879;50.110;18.900;2023-08-07T15:29:01;3.40;;;1.90;;
35757;SDS011;21879;50.110;18.900;2023-08-07T15:40:00;3.90;;;2.30;;
35757;SDS011;21879;50.110;18.900;2023-08-07T15:50:59;3.60;;;2.00;;
35757;SDS011;21879;50.110;18.900;2023-08-07T16:01:45;7.20;;;3.00;;
35757;SDS011;21879;50.110;18.900;2023-08-07T16:12:45;3.10;;;1.90;;
35757;SDS011;21879;50.110;18.900;2023-08-07T16:23:31;4.70;;;2.40;;
35757;SDS011;21879;50.110;18.900;2023-08-07T16:34:30;4.80;;;3.30;;
35757;SDS011;21879;50.110;18.900;2023-08-07T16:45:16;3.70;;;2.50;;
35757;SDS011;21879;50.110;18.900;2023-08-07T16:56:15;6.20;;;3.30;;
35757;SDS011;21879;50.110;18.900;2023-08-07T17:07:00;6.40;;;3.00;;
35757;SDS011;21879;50.110;18.900;2023-08-07T17:17:52;5.70;;;3.50;;
35757;SDS011;21879;50.110;18.900;2023-08-07T17:28:20;6.60;;;3.60;;
35757;SDS011;21879;50.110;18.900;2023-08-07T17:38:48;5.30;;;3.30;;
35757;SDS011;21879;50.110;18.900;2023-08-07T17:49:16;9.30;;;6.30;;
35757;SDS011;21879;50.110;18.900;2023-08-07T17:59:44;4.90;;;3.60;;
35757;SDS011;21879;50.110;18.900;2023-08-07T18:10:14;5.80;;;3.70;;
35757;SDS011;21879;50.110;18.900;2023-08-07T18:20:43;8.20;;;5.20;;
35757;SDS011;21879;50.110;18.900;2023-08-07T18:31:11;4.70;;;2.90;;
35757;SDS011;21879;50.110;18.900;2023-08-07T18:41:39;4.10;;;2.40;;
35757;SDS011;21879;50.110;18.900;2023-08-07T18:52:08;5.00;;;2.70;;
35757;SDS011;21879;50.110;18.900;2023-08-07T19:02:36;3.30;;;2.10;;
35757;SDS011;21879;50.110;18.900;2023-08-07T19:13:05;2.90;;;1.70;;
35757;SDS011;21879;50.110;18.900;2023-08-07T19:23:33;3.30;;;1.90;;
35757;SDS011;21879;50.110;18.900;2023-08-07T19:34:02;2.30;;;1.80;;
35757;SDS011;21879;50.110;18.900;2023-08-07T19:44:32;2.90;;;1.40;;
35757;SDS011;21879;50.110;18.900;2023-08-07T19:55:01;2.20;;;1.30;;
35757;SDS011;21879;50.110;18.900;2023-08-07T20:05:29;2.10;;;1.10;;
35757;SDS011;21879;50.110;18.900;2023-08-07T20:15:57;3.80;;;1.30;;
35757;SDS011;21879;50.110;18.900;2023-08-07T20:26:26;4.40;;;1.80;;
35757;SDS011;21879;50.110;18.900;2023-08-07T20:36:58;3.20;;;1.50;;
35757;SDS011;21879;50.110;18.900;2023-08-07T20:47:28;2.30;;;1.20;;
35757;SDS011;21879;50.110;18.900;2023-08-07T20:57:57;1.80;;;1.00;;
35757;SDS011;21879;50.110;18.900;2023-08-07T21:08:25;1.60;;;1.00;;
35757;SDS011;21879;50.110;18.900;2023-08-07T21:29:20;2.20;;;0.90;;
35757;SDS011;21879;50.110;18.900;2023-08-07T21:39:48;1.40;;;1.10;;
35757;SDS011;21879;50.110;18.900;2023-08-07T21:50:17;1.80;;;0.90;;
35757;SDS011;21879;50.110;18.900;2023-08-07T22:00:47;1.20;;;1.10;;
35757;SDS011;21879;50.110;18.900;2023-08-07T22:11:14;2.50;;;0.90;;
35757;SDS011;21879;50.110;18.900;2023-08-07T22:21:43;0.70;;;0.70;;
35757;SDS011;21879;50.110;18.900;2023-08-07T22:32:20;1.20;;;0.90;;
35757;SDS011;21879;50.110;18.900;2023-08-07T22:42:47;1.00;;;0.80;;
35757;SDS011;21879;50.110;18.900;2023-08-07T22:53:15;2.70;;;1.50;;
35757;SDS011;21879;50.110;18.900;2023-08-07T23:14:09;1.10;;;0.70;;
35757;SDS011;21879;50.110;18.900;2023-08-07T23:24:36;4.10;;;0.80;;
35757;SDS011;21879;50.110;18.900;2023-08-07T23:45:31;1.70;;;0.70;;
